createdAt,value
2022-12-11T00:00:53.474Z,27.69
2022-12-11T00:01:55.332Z,26.55
2022-12-11T00:02:57.144Z,23.75
2022-12-11T00:03:58.904Z,25.24
2022-12-11T00:05:00.685Z,26.09
2022-12-11T00:06:02.495Z,20.70
2022-12-11T00:07:04.341Z,25.67
2022-12-11T00:08:06.214Z,23.45
2022-12-11T00:09:07.951Z,23.37
2022-12-11T00:10:09.864Z,25.91
2022-12-11T00:11:11.679Z,24.44
2022-12-11T00:12:13.539Z,23.31
2022-12-11T00:13:15.329Z,23.35
2022-12-11T00:14:17.117Z,22.34
2022-12-11T00:15:18.915Z,25.12
2022-12-11T00:16:26.564Z,22.93
2022-12-11T00:17:24.406Z,23.49
2022-12-11T00:18:26.230Z,23.07
2022-12-11T00:19:28.032Z,21.86
2022-12-11T00:20:29.831Z,25.15
2022-12-11T00:21:31.634Z,27.63
2022-12-11T00:22:33.495Z,25.43
2022-12-11T00:23:35.321Z,22.10
2022-12-11T00:24:37.131Z,26.14
2022-12-11T00:25:38.913Z,21.67
2022-12-11T00:26:40.735Z,22.49
2022-12-11T00:27:42.582Z,23.71
2022-12-11T00:28:44.368Z,19.92
2022-12-11T00:29:46.181Z,24.43
2022-12-11T00:30:48.165Z,21.95
2022-12-11T00:31:50.008Z,20.93
2022-12-11T00:32:51.824Z,22.74
2022-12-11T00:33:53.642Z,21.27
2022-12-11T00:34:55.448Z,21.41
2022-12-11T00:35:57.258Z,20.43
2022-12-11T00:36:59.277Z,23.27
2022-12-11T00:38:01.134Z,23.64
2022-12-11T00:39:02.936Z,18.82
2022-12-11T00:40:04.940Z,21.31
2022-12-11T00:41:06.738Z,20.23
2022-12-11T00:42:08.547Z,21.47
2022-12-11T00:43:10.396Z,20.42
2022-12-11T00:44:12.211Z,20.02
2022-12-11T00:45:14.007Z,20.91
2022-12-11T00:46:16.195Z,23.24
2022-12-11T00:47:18.035Z,19.12
2022-12-11T00:48:19.885Z,23.98
2022-12-11T00:49:21.690Z,23.84
2022-12-11T00:50:23.803Z,25.49
2022-12-11T00:51:25.612Z,25.24
2022-12-11T00:52:27.414Z,22.81
2022-12-11T00:53:29.267Z,24.14
2022-12-11T00:54:31.063Z,25.00
2022-12-11T00:55:32.878Z,22.77
2022-12-11T00:56:35.301Z,20.02
2022-12-11T00:57:37.162Z,23.25
2022-12-11T00:58:39.007Z,19.17
2022-12-11T00:59:40.817Z,23.64
2022-12-11T01:00:42.725Z,24.96
2022-12-11T01:01:44.581Z,20.93
2022-12-11T01:02:46.417Z,23.74
2022-12-11T01:03:48.312Z,24.52
2022-12-11T01:04:50.097Z,24.05
2022-12-11T01:05:51.917Z,23.45
2022-12-11T01:06:53.818Z,23.49
2022-12-11T01:07:55.714Z,26.31
2022-12-11T01:08:57.566Z,25.63
2022-12-11T01:09:59.375Z,25.87
2022-12-11T01:11:01.184Z,27.06
2022-12-11T01:12:02.990Z,24.07
2022-12-11T01:13:04.782Z,28.92
2022-12-11T01:14:06.649Z,28.84
2022-12-11T01:15:08.878Z,24.98
2022-12-11T01:16:10.968Z,21.99
2022-12-11T01:17:12.858Z,25.48
2022-12-11T01:18:14.656Z,23.87
2022-12-11T01:19:16.516Z,22.63
2022-12-11T01:20:18.439Z,24.69
2022-12-11T01:21:20.248Z,24.21
2022-12-11T01:22:22.046Z,20.35
2022-12-11T01:23:23.859Z,23.51
2022-12-11T01:24:25.722Z,22.15
2022-12-11T01:25:27.517Z,21.05
2022-12-11T01:26:29.420Z,25.16
2022-12-11T01:27:31.243Z,22.56
2022-12-11T01:28:33.044Z,23.99
2022-12-11T01:29:34.884Z,24.23
2022-12-11T01:30:36.850Z,22.57
2022-12-11T01:31:38.607Z,22.37
2022-12-11T01:32:40.554Z,22.85
2022-12-11T01:33:42.348Z,23.23
2022-12-11T01:34:44.202Z,22.63
2022-12-11T01:35:46.410Z,25.11
2022-12-11T01:36:48.530Z,24.11
2022-12-11T01:37:50.345Z,21.85
2022-12-11T01:38:52.156Z,24.69
2022-12-11T01:39:54.010Z,24.09
2022-12-11T01:40:55.920Z,24.96
2022-12-11T01:41:57.725Z,22.71
2022-12-11T01:42:59.540Z,24.69
2022-12-11T01:44:01.356Z,24.83
2022-12-11T01:45:05.049Z,27.02
2022-12-11T01:46:07.113Z,25.35
2022-12-11T01:47:08.906Z,22.66
2022-12-11T01:48:10.756Z,26.09
2022-12-11T01:49:12.562Z,21.97
2022-12-11T01:50:14.537Z,22.06
2022-12-11T01:51:16.350Z,22.81
2022-12-11T01:52:18.156Z,24.83
2022-12-11T01:53:19.976Z,22.42
2022-12-11T01:54:21.759Z,23.52
2022-12-11T01:55:23.614Z,21.90
2022-12-11T01:56:25.728Z,20.16
2022-12-11T01:57:27.528Z,21.51
2022-12-11T01:58:29.373Z,22.13
2022-12-11T01:59:31.126Z,20.69
2022-12-11T02:00:33.280Z,19.62
2022-12-11T02:01:35.125Z,21.43
2022-12-11T02:02:37.021Z,20.37
2022-12-11T02:03:38.811Z,24.05
2022-12-11T02:04:40.633Z,20.99
2022-12-11T02:05:42.466Z,20.10
2022-12-11T02:06:44.274Z,22.65
2022-12-11T02:07:46.125Z,20.85
2022-12-11T02:08:47.879Z,20.90
2022-12-11T02:09:49.689Z,22.59
2022-12-11T02:10:51.833Z,18.33
2022-12-11T02:11:53.656Z,18.65
2022-12-11T02:12:55.460Z,18.88
2022-12-11T02:13:57.266Z,18.21
2022-12-11T02:14:59.062Z,20.90
2022-12-11T02:16:00.965Z,22.43
2022-12-11T02:17:02.726Z,21.87
2022-12-11T02:18:04.536Z,21.54
2022-12-11T02:19:06.449Z,20.60
2022-12-11T02:20:08.568Z,21.82
2022-12-11T02:21:10.401Z,21.26
2022-12-11T02:22:12.212Z,22.10
2022-12-11T02:23:14.012Z,21.12
2022-12-11T02:24:15.841Z,21.18
2022-12-11T02:25:17.659Z,19.93
2022-12-11T02:26:19.496Z,24.11
2022-12-11T02:27:21.306Z,22.39
2022-12-11T02:28:23.101Z,22.54
2022-12-11T02:29:24.913Z,20.54
2022-12-11T02:30:26.832Z,21.42
2022-12-11T02:31:28.716Z,21.58
2022-12-11T02:32:30.453Z,20.65
2022-12-11T02:33:32.252Z,25.87
2022-12-11T02:34:34.077Z,22.45
2022-12-11T02:35:35.894Z,25.28
2022-12-11T02:36:37.831Z,23.41
2022-12-11T02:37:39.636Z,25.63
2022-12-11T02:38:41.446Z,25.29
2022-12-11T02:39:43.252Z,26.95
2022-12-11T02:40:45.268Z,26.89
2022-12-11T02:41:47.113Z,25.65
2022-12-11T02:42:48.923Z,25.97
2022-12-11T02:43:50.743Z,23.77
2022-12-11T02:44:52.516Z,21.76
2022-12-11T02:45:54.367Z,23.34
2022-12-11T02:46:56.301Z,23.60
2022-12-11T02:47:58.122Z,25.25
2022-12-11T02:48:59.923Z,23.34
2022-12-11T02:50:01.756Z,21.98
2022-12-11T02:51:03.568Z,22.08
2022-12-11T02:52:05.424Z,28.19
2022-12-11T02:53:07.241Z,23.66
2022-12-11T02:54:09.026Z,21.21
2022-12-11T02:55:11.125Z,24.91
2022-12-11T02:56:13.056Z,25.23
2022-12-11T02:57:14.876Z,24.93
2022-12-11T02:58:16.678Z,25.83
2022-12-11T02:59:18.504Z,23.87
2022-12-11T03:00:20.426Z,24.37
2022-12-11T03:01:22.290Z,24.42
2022-12-11T03:02:24.209Z,27.16
2022-12-11T03:03:25.979Z,24.85
2022-12-11T03:04:27.775Z,24.99
2022-12-11T03:05:29.588Z,23.73
2022-12-11T03:06:31.878Z,23.25
2022-12-11T03:07:33.708Z,25.59
2022-12-11T03:08:35.500Z,22.59
2022-12-11T03:09:37.294Z,25.60
2022-12-11T03:10:39.522Z,22.45
2022-12-11T03:11:41.332Z,25.34
2022-12-11T03:12:43.200Z,25.95
2022-12-11T03:13:45.002Z,23.08
2022-12-11T03:14:46.806Z,23.16
2022-12-11T03:15:48.602Z,25.81
2022-12-11T03:16:50.426Z,24.45
2022-12-11T03:17:52.242Z,23.19
2022-12-11T03:18:54.059Z,19.84
2022-12-11T03:19:55.876Z,25.19
2022-12-11T03:20:58.021Z,22.50
2022-12-11T03:21:59.835Z,23.07
2022-12-11T03:23:01.705Z,23.15
2022-12-11T03:24:03.503Z,22.07
2022-12-11T03:25:05.310Z,20.47
2022-12-11T03:26:07.529Z,23.45
2022-12-11T03:27:11.255Z,20.77
2022-12-11T03:28:12.970Z,23.13
2022-12-11T03:29:14.750Z,22.68
2022-12-11T03:30:16.661Z,20.90
2022-12-11T03:31:18.486Z,25.31
2022-12-11T03:32:20.301Z,23.44
2022-12-11T03:33:22.135Z,22.43
2022-12-11T03:34:23.958Z,25.27
2022-12-11T03:35:25.759Z,23.54
2022-12-11T03:36:27.604Z,25.79
2022-12-11T03:37:29.402Z,29.41
2022-12-11T03:38:31.249Z,24.59
2022-12-11T03:39:33.039Z,31.79
2022-12-11T03:40:34.941Z,30.29
2022-12-11T03:41:36.755Z,25.11
2022-12-11T03:42:38.587Z,26.31
2022-12-11T03:43:40.451Z,28.13
2022-12-11T03:44:42.291Z,28.85
2022-12-11T03:45:44.182Z,27.74
2022-12-11T03:46:46.049Z,27.77
2022-12-11T03:47:47.858Z,32.39
2022-12-11T03:48:49.710Z,32.11
2022-12-11T03:49:51.531Z,27.24
2022-12-11T03:50:53.335Z,29.96
2022-12-11T03:51:55.154Z,28.56
2022-12-11T03:52:56.956Z,30.84
2022-12-11T03:53:58.784Z,29.25
2022-12-11T03:55:00.585Z,26.44
2022-12-11T03:56:02.366Z,29.15
2022-12-11T03:57:04.186Z,26.73
2022-12-11T03:58:05.995Z,28.97
2022-12-11T03:59:07.828Z,24.54
2022-12-11T04:00:09.632Z,29.63
2022-12-11T04:01:11.760Z,27.12
2022-12-11T04:02:13.566Z,31.61
2022-12-11T04:03:15.368Z,28.74
2022-12-11T04:04:17.269Z,29.47
2022-12-11T04:05:19.091Z,31.05
2022-12-11T04:06:20.883Z,28.09
2022-12-11T04:07:22.713Z,27.36
2022-12-11T04:08:24.551Z,27.86
2022-12-11T04:09:26.373Z,27.99
2022-12-11T04:10:28.178Z,31.60
2022-12-11T04:11:29.998Z,26.96
2022-12-11T04:12:31.822Z,28.84
2022-12-11T04:13:33.628Z,29.79
2022-12-11T04:14:35.499Z,31.01
2022-12-11T04:15:37.355Z,28.47
2022-12-11T04:16:39.290Z,28.99
2022-12-11T04:17:41.092Z,31.09
2022-12-11T04:18:42.890Z,33.14
2022-12-11T04:19:44.730Z,30.39
2022-12-11T04:20:46.859Z,29.92
2022-12-11T04:21:48.678Z,28.01
2022-12-11T04:22:50.584Z,29.25
2022-12-11T04:23:52.386Z,30.56
2022-12-11T04:24:54.206Z,32.79
2022-12-11T04:25:55.998Z,30.66
2022-12-11T04:26:57.903Z,35.74
2022-12-11T04:27:59.699Z,29.12
2022-12-11T04:29:01.509Z,27.64
2022-12-11T04:30:03.455Z,32.37
2022-12-11T04:31:05.304Z,28.49
2022-12-11T04:32:07.061Z,34.57
2022-12-11T04:33:08.876Z,30.03
2022-12-11T04:34:10.695Z,30.73
2022-12-11T04:35:12.812Z,32.26
2022-12-11T04:36:14.869Z,31.41
2022-12-11T04:37:16.654Z,29.97
2022-12-11T04:38:18.502Z,31.35
2022-12-11T04:39:20.301Z,27.66
2022-12-11T04:40:22.214Z,29.70
2022-12-11T04:41:24.030Z,26.10
2022-12-11T04:42:25.845Z,28.63
2022-12-11T04:43:27.667Z,25.68
2022-12-11T04:44:29.490Z,26.39
2022-12-11T04:45:31.366Z,31.88
2022-12-11T04:46:33.323Z,27.79
2022-12-11T04:47:35.200Z,32.15
2022-12-11T04:48:37.016Z,26.50
2022-12-11T04:49:38.801Z,30.66
2022-12-11T04:50:40.744Z,25.94
2022-12-11T04:51:42.541Z,29.12
2022-12-11T04:52:44.343Z,28.97
2022-12-11T04:53:46.177Z,28.47
2022-12-11T04:54:47.975Z,32.81
2022-12-11T04:55:49.816Z,30.21
2022-12-11T04:56:51.732Z,35.01
2022-12-11T04:57:53.546Z,32.87
2022-12-11T04:58:55.337Z,31.41
2022-12-11T04:59:57.152Z,36.39
2022-12-11T05:00:59.401Z,36.69
2022-12-11T05:02:01.256Z,38.47
2022-12-11T05:03:03.074Z,33.69
2022-12-11T05:04:04.912Z,35.90
2022-12-11T05:05:06.733Z,31.40
2022-12-11T05:06:08.728Z,29.38
2022-12-11T05:07:10.539Z,28.07
2022-12-11T05:08:12.402Z,28.20
2022-12-11T05:09:14.329Z,30.14
2022-12-11T05:10:16.226Z,27.85
2022-12-11T05:11:18.060Z,27.57
2022-12-11T05:12:19.872Z,28.84
2022-12-11T05:13:21.688Z,37.51
2022-12-11T05:14:23.488Z,34.63
2022-12-11T05:15:25.302Z,32.68
2022-12-11T05:16:27.293Z,29.79
2022-12-11T05:17:29.077Z,27.75
2022-12-11T05:18:30.881Z,25.38
2022-12-11T05:19:32.679Z,28.27
2022-12-11T05:20:34.583Z,28.33
2022-12-11T05:21:36.444Z,30.25
2022-12-11T05:22:38.269Z,26.98
2022-12-11T05:23:40.059Z,29.82
2022-12-11T05:24:41.890Z,28.05
2022-12-11T05:25:43.702Z,27.25
2022-12-11T05:26:45.547Z,27.71
2022-12-11T05:27:47.358Z,31.24
2022-12-11T05:28:49.158Z,34.29
2022-12-11T05:29:54.823Z,25.77
2022-12-11T05:30:54.820Z,29.42
2022-12-11T05:31:56.660Z,28.90
2022-12-11T05:32:58.455Z,27.39
2022-12-11T05:34:00.261Z,29.70
2022-12-11T05:35:02.058Z,27.07
2022-12-11T05:36:03.875Z,34.20
2022-12-11T05:37:05.747Z,32.54
2022-12-11T05:38:07.532Z,38.85
2022-12-11T05:39:09.339Z,37.12
2022-12-11T05:40:12.067Z,35.94
2022-12-11T05:41:13.881Z,30.86
2022-12-11T05:42:15.729Z,28.49
2022-12-11T05:43:17.540Z,28.05
2022-12-11T05:44:19.342Z,28.75
2022-12-11T05:45:21.145Z,31.12
2022-12-11T05:46:23.097Z,26.62
2022-12-11T05:47:24.914Z,27.14
2022-12-11T05:48:26.719Z,28.21
2022-12-11T05:49:30.993Z,26.81
2022-12-11T05:50:32.136Z,31.93
2022-12-11T05:51:34.060Z,28.63
2022-12-11T05:52:35.894Z,31.61
2022-12-11T05:53:37.719Z,31.63
2022-12-11T05:54:39.515Z,33.01
2022-12-11T05:55:41.343Z,30.43
2022-12-11T05:56:43.464Z,29.52
2022-12-11T05:57:45.320Z,30.07
2022-12-11T05:58:47.122Z,30.23
2022-12-11T05:59:48.935Z,26.74
2022-12-11T06:00:51.050Z,26.14
2022-12-11T06:01:52.932Z,26.03
2022-12-11T06:02:54.914Z,26.91
2022-12-11T06:03:56.834Z,27.28
2022-12-11T06:04:58.622Z,25.83
2022-12-11T06:06:00.532Z,28.03
2022-12-11T06:07:02.351Z,27.33
2022-12-11T06:08:04.222Z,29.93
2022-12-11T06:09:05.997Z,28.70
2022-12-11T06:10:08.523Z,24.61
2022-12-11T06:11:10.435Z,25.81
2022-12-11T06:12:12.245Z,28.91
2022-12-11T06:13:14.106Z,28.04
2022-12-11T06:14:15.909Z,30.46
2022-12-11T06:15:17.809Z,31.47
2022-12-11T06:16:19.812Z,25.71
2022-12-11T06:17:21.649Z,28.79
2022-12-11T06:18:23.480Z,28.21
2022-12-11T06:19:25.282Z,28.60
2022-12-11T06:20:27.397Z,27.73
2022-12-11T06:21:29.190Z,31.64
2022-12-11T06:22:30.996Z,30.98
2022-12-11T06:23:32.843Z,29.73
2022-12-11T06:24:34.658Z,23.03
2022-12-11T06:25:36.453Z,26.79
2022-12-11T06:26:38.558Z,27.91
2022-12-11T06:27:40.468Z,26.77
2022-12-11T06:28:42.325Z,25.87
2022-12-11T06:29:44.129Z,24.02
2022-12-11T06:30:46.552Z,26.53
2022-12-11T06:31:48.393Z,26.34
2022-12-11T06:32:50.160Z,26.65
2022-12-11T06:33:52.005Z,26.05
2022-12-11T06:34:53.837Z,26.10
2022-12-11T06:35:55.640Z,25.74
2022-12-11T06:36:58.055Z,28.57
2022-12-11T06:37:59.851Z,26.55
2022-12-11T06:39:01.707Z,26.43
2022-12-11T06:40:03.627Z,27.77
2022-12-11T06:41:05.424Z,30.99
2022-12-11T06:42:07.247Z,27.33
2022-12-11T06:43:09.052Z,29.25
2022-12-11T06:44:10.903Z,28.97
2022-12-11T06:45:13.015Z,28.25
2022-12-11T06:46:14.980Z,24.54
2022-12-11T06:47:16.831Z,26.62
2022-12-11T06:48:18.626Z,29.52
2022-12-11T06:49:20.483Z,24.30
2022-12-11T06:50:22.594Z,27.17
2022-12-11T06:51:24.394Z,29.62
2022-12-11T06:52:26.204Z,26.37
2022-12-11T06:53:28.021Z,24.03
2022-12-11T06:54:29.871Z,25.85
2022-12-11T06:55:31.681Z,24.53
2022-12-11T06:56:33.786Z,27.77
2022-12-11T06:57:35.624Z,29.64
2022-12-11T06:58:37.426Z,24.90
2022-12-11T06:59:39.262Z,25.92
2022-12-11T07:00:41.408Z,30.53
2022-12-11T07:01:43.181Z,21.93
2022-12-11T07:02:44.991Z,25.06
2022-12-11T07:03:46.786Z,28.05
2022-12-11T07:04:53.458Z,25.56
2022-12-11T07:05:52.262Z,25.74
2022-12-11T07:06:54.789Z,28.84
2022-12-11T07:07:56.707Z,25.36
2022-12-11T07:08:58.517Z,25.43
2022-12-11T07:10:05.948Z,23.05
2022-12-11T07:11:03.924Z,23.18
2022-12-11T07:12:05.727Z,26.12
2022-12-11T07:13:07.610Z,27.68
2022-12-11T07:14:09.395Z,25.68
2022-12-11T07:15:11.544Z,26.61
2022-12-11T07:16:13.553Z,29.89
2022-12-11T07:17:15.356Z,26.94
2022-12-11T07:18:17.174Z,24.46
2022-12-11T07:19:18.984Z,22.39
2022-12-11T07:20:20.827Z,24.90
2022-12-11T07:21:22.646Z,24.41
2022-12-11T07:22:24.459Z,27.65
2022-12-11T07:23:26.237Z,23.38
2022-12-11T07:24:28.029Z,24.48
2022-12-11T07:25:29.890Z,30.73
2022-12-11T07:26:32.111Z,27.25
2022-12-11T07:27:33.914Z,28.77
2022-12-11T07:28:35.779Z,29.32
2022-12-11T07:29:37.601Z,25.99
2022-12-11T07:30:39.440Z,24.49
2022-12-11T07:31:41.279Z,22.71
2022-12-11T07:32:43.151Z,24.86
2022-12-11T07:33:44.974Z,24.61
2022-12-11T07:34:51.588Z,25.91
2022-12-11T07:35:50.432Z,28.71
2022-12-11T07:36:52.336Z,30.62
2022-12-11T07:37:54.148Z,33.31
2022-12-11T07:38:55.980Z,26.13
2022-12-11T07:39:57.804Z,25.31
2022-12-11T07:40:59.771Z,23.39
2022-12-11T07:42:01.579Z,23.90
2022-12-11T07:43:03.377Z,23.52
2022-12-11T07:44:06.231Z,23.89
2022-12-11T07:45:08.268Z,22.04
2022-12-11T07:46:10.436Z,28.59
2022-12-11T07:47:12.197Z,25.49
2022-12-11T07:48:13.992Z,25.80
2022-12-11T07:49:15.779Z,26.04
2022-12-11T07:50:17.685Z,31.71
2022-12-11T07:51:19.566Z,42.27
2022-12-11T07:52:21.373Z,35.38
2022-12-11T07:53:23.176Z,37.49
2022-12-11T07:54:25.008Z,31.88
2022-12-11T07:55:26.813Z,29.39
2022-12-11T07:56:28.942Z,26.60
2022-12-11T07:57:30.755Z,28.97
2022-12-11T07:58:32.537Z,28.25
2022-12-11T07:59:34.384Z,26.36
2022-12-11T08:00:36.994Z,30.20
2022-12-11T08:01:38.909Z,28.69
2022-12-11T08:02:40.807Z,25.65
2022-12-11T08:03:42.548Z,27.95
2022-12-11T08:04:44.344Z,25.62
2022-12-11T08:05:46.115Z,24.99
2022-12-11T08:06:48.062Z,27.55
2022-12-11T08:07:49.905Z,26.73
2022-12-11T08:08:52.067Z,29.49
2022-12-11T08:09:53.858Z,32.28
2022-12-11T08:10:56.077Z,26.87
2022-12-11T08:11:57.925Z,23.88
2022-12-11T08:12:59.708Z,25.03
2022-12-11T08:14:01.415Z,25.95
2022-12-11T08:15:03.304Z,23.99
2022-12-11T08:16:05.270Z,23.51
2022-12-11T08:17:07.155Z,25.33
2022-12-11T08:18:08.908Z,23.27
2022-12-11T08:19:10.717Z,27.81
2022-12-11T08:20:12.802Z,27.47
2022-12-11T08:21:14.528Z,26.61
2022-12-11T08:22:16.378Z,30.29
2022-12-11T08:23:18.181Z,24.89
2022-12-11T08:24:19.966Z,25.05
2022-12-11T08:25:21.784Z,44.19
2022-12-11T08:26:23.696Z,32.23
2022-12-11T08:27:25.545Z,27.14
2022-12-11T08:28:27.483Z,27.78
2022-12-11T08:29:29.246Z,31.13
2022-12-11T08:30:31.151Z,26.19
2022-12-11T08:31:33.037Z,24.35
2022-12-11T08:32:34.887Z,26.59
2022-12-11T08:33:36.662Z,26.37
2022-12-11T08:34:40.646Z,29.57
2022-12-11T08:35:42.398Z,30.81
2022-12-11T08:36:44.482Z,25.33
2022-12-11T08:37:46.335Z,27.13
2022-12-11T08:38:48.143Z,27.27
2022-12-11T08:39:49.927Z,27.19
2022-12-11T08:40:51.884Z,23.64
2022-12-11T08:41:53.700Z,23.60
2022-12-11T08:42:55.581Z,25.66
2022-12-11T08:43:57.393Z,24.87
2022-12-11T08:44:59.176Z,23.72
2022-12-11T08:46:01.053Z,26.51
2022-12-11T08:47:02.912Z,24.27
2022-12-11T08:48:06.088Z,21.71
2022-12-11T08:49:09.002Z,25.95
2022-12-11T08:50:11.949Z,23.24
2022-12-11T08:51:13.739Z,29.05
2022-12-11T08:52:16.700Z,26.50
2022-12-11T08:53:18.584Z,26.25
2022-12-11T08:54:20.389Z,26.17
2022-12-11T08:55:22.218Z,25.30
2022-12-11T08:56:24.040Z,23.56
2022-12-11T08:57:25.864Z,26.84
2022-12-11T08:58:27.700Z,23.17
2022-12-11T08:59:29.526Z,21.41
2022-12-11T09:00:33.143Z,24.02
2022-12-11T09:01:35.042Z,24.73
2022-12-11T09:02:36.809Z,24.91
2022-12-11T09:03:38.637Z,26.89
2022-12-11T09:04:40.432Z,22.01
2022-12-11T09:05:42.255Z,22.95
2022-12-11T09:06:44.381Z,21.89
2022-12-11T09:07:46.274Z,20.93
2022-12-11T09:08:52.152Z,23.54
2022-12-11T09:09:51.792Z,26.06
2022-12-11T09:10:53.686Z,24.31
2022-12-11T09:11:55.494Z,24.38
2022-12-11T09:12:57.309Z,23.87
2022-12-11T09:14:05.210Z,20.59
2022-12-11T09:15:02.798Z,23.66
2022-12-11T09:16:04.734Z,23.34
2022-12-11T09:17:06.484Z,24.53
2022-12-11T09:18:08.313Z,25.47
2022-12-11T09:19:10.160Z,24.82
2022-12-11T09:20:12.260Z,27.63
2022-12-11T09:21:13.964Z,22.32
2022-12-11T09:22:15.698Z,23.39
2022-12-11T09:23:17.508Z,23.03
2022-12-11T09:24:19.339Z,30.30
2022-12-11T09:25:21.143Z,24.74
2022-12-11T09:26:23.142Z,24.68
2022-12-11T09:27:24.930Z,25.45
2022-12-11T09:28:26.648Z,22.86
2022-12-11T09:29:28.504Z,25.93
2022-12-11T09:30:30.317Z,26.21
2022-12-11T09:31:32.068Z,20.32
2022-12-11T09:32:34.064Z,24.44
2022-12-11T09:33:35.852Z,22.43
2022-12-11T09:34:37.692Z,23.56
2022-12-11T09:35:39.498Z,21.77
2022-12-11T09:36:41.585Z,23.79
2022-12-11T09:37:43.394Z,21.91
2022-12-11T09:38:45.191Z,23.82
2022-12-11T09:39:47.065Z,22.55
2022-12-11T09:40:49.167Z,24.06
2022-12-11T09:41:50.978Z,29.61
2022-12-11T09:42:52.869Z,21.91
2022-12-11T09:43:54.687Z,22.14
2022-12-11T09:44:56.527Z,25.14
2022-12-11T09:45:58.523Z,29.46
2022-12-11T09:47:00.579Z,24.59
2022-12-11T09:48:02.460Z,26.39
2022-12-11T09:49:04.280Z,25.14
2022-12-11T09:50:06.339Z,26.47
2022-12-11T09:51:08.115Z,24.17
2022-12-11T09:52:09.926Z,27.01
2022-12-11T09:53:11.725Z,27.53
2022-12-11T09:54:13.602Z,27.43
2022-12-11T09:55:15.429Z,26.89
2022-12-11T09:56:17.315Z,25.29
2022-12-11T09:57:19.123Z,29.22
2022-12-11T09:58:20.925Z,26.68
2022-12-11T09:59:22.734Z,20.95
2022-12-11T10:00:24.659Z,25.30
2022-12-11T10:01:26.526Z,21.67
2022-12-11T10:02:28.351Z,22.08
2022-12-11T10:03:30.158Z,26.50
2022-12-11T10:04:31.965Z,21.41
2022-12-11T10:05:33.810Z,25.01
2022-12-11T10:06:35.923Z,28.45
2022-12-11T10:07:37.722Z,28.46
2022-12-11T10:08:39.558Z,23.54
2022-12-11T10:09:41.350Z,25.63
2022-12-11T10:10:43.202Z,24.38
2022-12-11T10:11:45.001Z,25.75
2022-12-11T10:12:46.790Z,22.60
2022-12-11T10:13:48.614Z,23.49
2022-12-11T10:14:53.330Z,23.08
2022-12-11T10:15:55.200Z,22.55
2022-12-11T10:16:57.579Z,26.24
2022-12-11T10:18:04.631Z,26.53
2022-12-11T10:19:03.037Z,24.69
2022-12-11T10:20:05.153Z,23.87
2022-12-11T10:21:06.996Z,23.39
2022-12-11T10:22:08.787Z,23.28
2022-12-11T10:23:10.584Z,25.32
2022-12-11T10:24:12.403Z,21.40
2022-12-11T10:25:14.205Z,23.40
2022-12-11T10:26:16.080Z,23.28
2022-12-11T10:27:17.878Z,19.41
2022-12-11T10:28:19.686Z,22.29
2022-12-11T10:29:21.497Z,24.73
2022-12-11T10:30:23.484Z,22.06
2022-12-11T10:31:25.399Z,21.66
2022-12-11T10:32:27.140Z,21.61
2022-12-11T10:33:28.929Z,23.21
2022-12-11T10:34:30.755Z,21.49
2022-12-11T10:35:32.562Z,19.41
2022-12-11T10:36:34.409Z,21.39
2022-12-11T10:37:36.201Z,22.21
2022-12-11T10:38:38.006Z,22.94
2022-12-11T10:39:39.801Z,22.52
2022-12-11T10:40:41.718Z,19.17
2022-12-11T10:41:44.535Z,20.97
2022-12-11T10:42:46.385Z,23.51
2022-12-11T10:43:48.170Z,21.57
2022-12-11T10:44:49.973Z,20.13
2022-12-11T10:45:51.778Z,21.00
2022-12-11T10:46:53.811Z,21.04
2022-12-11T10:47:55.582Z,24.17
2022-12-11T10:48:57.365Z,21.73
2022-12-11T10:49:59.176Z,23.51
2022-12-11T10:51:01.107Z,20.48
2022-12-11T10:52:02.948Z,20.64
2022-12-11T10:53:04.735Z,20.06
2022-12-11T10:54:07.414Z,20.14
2022-12-11T10:55:09.732Z,18.58
2022-12-11T10:56:12.990Z,19.82
2022-12-11T10:57:16.618Z,21.06
2022-12-11T10:58:26.421Z,18.20
2022-12-11T10:59:32.845Z,19.99
2022-12-11T11:00:39.152Z,19.79
2022-12-11T11:01:41.038Z,19.91
2022-12-11T11:02:45.576Z,21.85
2022-12-11T11:03:47.347Z,22.95
2022-12-11T11:04:50.947Z,22.39
2022-12-11T11:05:52.852Z,23.02
2022-12-11T11:06:54.842Z,21.81
2022-12-11T11:07:56.694Z,20.19
2022-12-11T11:08:58.487Z,18.50
2022-12-11T11:10:00.300Z,23.79
2022-12-11T11:11:02.106Z,23.27
2022-12-11T11:12:07.816Z,20.16
2022-12-11T11:13:07.550Z,21.74
2022-12-11T11:14:09.329Z,21.05
2022-12-11T11:15:11.394Z,21.44
2022-12-11T11:16:13.583Z,20.75
2022-12-11T11:17:15.485Z,19.19
2022-12-11T11:18:17.303Z,24.23
2022-12-11T11:19:19.086Z,25.41
2022-12-11T11:20:21.009Z,21.05
2022-12-11T11:21:22.926Z,21.96
2022-12-11T11:22:24.725Z,19.11
2022-12-11T11:23:26.574Z,17.63
2022-12-11T11:24:28.381Z,22.21
2022-12-11T11:25:30.207Z,19.86
2022-12-11T11:27:04.257Z,20.23
2022-12-11T11:27:35.731Z,19.82
2022-12-11T11:28:37.596Z,19.87
2022-12-11T11:29:39.399Z,21.78
2022-12-11T11:30:41.218Z,18.87
2022-12-11T11:31:43.097Z,22.37
2022-12-11T11:32:44.849Z,20.07
2022-12-11T11:33:46.702Z,18.27
2022-12-11T11:34:48.512Z,18.87
2022-12-11T11:35:50.301Z,22.56
2022-12-11T11:36:52.502Z,19.77
2022-12-11T11:37:54.304Z,21.80
2022-12-11T11:38:56.163Z,20.42
2022-12-11T11:39:57.989Z,20.82
2022-12-11T11:41:05.653Z,20.45
2022-12-11T11:42:03.813Z,21.89
2022-12-11T11:43:05.618Z,20.91
2022-12-11T11:44:07.452Z,20.86
2022-12-11T11:45:09.708Z,20.57
2022-12-11T11:46:11.735Z,20.57
2022-12-11T11:47:13.484Z,21.92
2022-12-11T11:48:15.295Z,23.65
2022-12-11T11:49:17.154Z,22.13
2022-12-11T11:50:19.054Z,21.19
2022-12-11T11:51:20.859Z,20.85
2022-12-11T11:52:22.864Z,20.62
2022-12-11T11:53:24.663Z,21.54
2022-12-11T11:54:26.515Z,19.73
2022-12-11T11:55:28.319Z,21.85
2022-12-11T11:56:30.233Z,22.51
2022-12-11T11:57:32.046Z,20.39
2022-12-11T11:58:33.858Z,19.89
2022-12-11T11:59:35.708Z,20.69
2022-12-11T12:00:37.722Z,21.49
2022-12-11T12:01:39.520Z,23.37
2022-12-11T12:02:41.376Z,26.64
2022-12-11T12:03:43.132Z,28.45
2022-12-11T12:04:44.988Z,28.07
2022-12-11T12:05:46.792Z,26.41
2022-12-11T12:06:50.919Z,26.73
2022-12-11T12:07:52.242Z,25.44
2022-12-11T12:08:54.016Z,28.25
2022-12-11T12:09:55.903Z,31.60
2022-12-11T12:10:57.818Z,31.48
2022-12-11T12:11:59.633Z,26.48
2022-12-11T12:13:01.459Z,26.93
2022-12-11T12:14:03.448Z,21.37
2022-12-11T12:15:06.931Z,25.12
2022-12-11T12:16:29.218Z,21.71
2022-12-11T12:17:12.701Z,22.33
2022-12-11T12:18:14.562Z,25.23
2022-12-11T12:19:16.389Z,22.49
2022-12-11T12:20:18.529Z,22.40
2022-12-11T12:21:20.347Z,20.13
2022-12-11T12:22:22.362Z,24.87
2022-12-11T12:23:24.319Z,24.47
2022-12-11T12:24:26.128Z,20.69
2022-12-11T12:25:28.009Z,23.77
2022-12-11T12:26:30.023Z,21.22
2022-12-11T12:28:35.491Z,26.16
2022-12-11T12:29:37.290Z,27.43
2022-12-11T12:30:39.145Z,27.98
2022-12-11T12:31:41.071Z,23.39
2022-12-11T12:32:42.909Z,23.03
2022-12-11T12:33:44.716Z,25.07
2022-12-11T12:34:46.523Z,21.04
2022-12-11T12:35:48.374Z,20.55
2022-12-11T12:36:50.267Z,20.92
2022-12-11T12:37:52.076Z,24.36
2022-12-11T12:38:53.929Z,21.09
2022-12-11T12:39:55.737Z,23.06
2022-12-11T12:40:57.687Z,21.82
2022-12-11T12:42:05.604Z,25.89
2022-12-11T12:43:03.114Z,25.57
2022-12-11T12:44:04.965Z,24.00
2022-12-11T12:45:06.823Z,23.03
2022-12-11T12:46:09.637Z,25.40
2022-12-11T12:47:11.376Z,24.10
2022-12-11T12:48:13.190Z,22.95
2022-12-11T12:49:15.005Z,31.55
2022-12-11T12:50:16.819Z,29.21
2022-12-11T12:51:18.661Z,23.07
2022-12-11T12:52:20.475Z,22.50
2022-12-11T12:53:22.278Z,21.02
2022-12-11T12:54:24.115Z,22.35
2022-12-11T12:55:25.937Z,22.28
2022-12-11T12:56:27.904Z,24.11
2022-12-11T12:57:29.677Z,23.65
2022-12-11T12:58:31.494Z,21.31
2022-12-11T12:59:33.337Z,22.00
2022-12-11T13:00:35.253Z,20.46
2022-12-11T13:01:37.118Z,20.97
2022-12-11T13:02:38.891Z,21.35
2022-12-11T13:03:40.708Z,22.43
2022-12-11T13:04:57.880Z,21.73
2022-12-11T13:05:46.131Z,24.28
2022-12-11T13:06:47.969Z,23.20
2022-12-11T13:07:53.963Z,21.54
2022-12-11T13:08:53.394Z,22.16
2022-12-11T13:09:55.222Z,22.89
2022-12-11T13:10:57.144Z,25.17
2022-12-11T13:11:58.983Z,23.56
2022-12-11T13:13:00.767Z,22.51
2022-12-11T13:14:02.594Z,21.75
2022-12-11T13:15:04.410Z,25.01
2022-12-11T13:16:06.529Z,20.07
2022-12-11T13:17:08.368Z,21.79
2022-12-11T13:18:10.167Z,21.45
2022-12-11T13:19:11.983Z,20.83